sensor_id;sensor_type;location;lat;lon;timestamp;temperature;humidity
4411;DHT22;2218;51.408;7.208;2023-05-23T00:02:13;21.60;53.70
4411;DHT22;2218;51.408;7.208;2023-05-23T00:04:41;21.60;53.70
4411;DHT22;2218;51.408;7.208;2023-05-23T00:07:09;21.50;53.60
4411;DHT22;2218;51.408;7.208;2023-05-23T00:09:35;21.60;53.70
4411;DHT22;2218;51.408;7.208;2023-05-23T00:12:03;21.60;53.70
4411;DHT22;2218;51.408;7.208;2023-05-23T00:14:31;21.50;53.60
4411;DHT22;2218;51.408;7.208;2023-05-23T00:16:59;21.50;53.60
4411;DHT22;2218;51.408;7.208;2023-05-23T00:19:28;21.60;53.70
4411;DHT22;2218;51.408;7.208;2023-05-23T00:21:55;21.50;53.60
4411;DHT22;2218;51.408;7.208;2023-05-23T00:24:23;21.60;53.70
4411;DHT22;2218;51.408;7.208;2023-05-23T00:26:50;21.50;53.60
4411;DHT22;2218;51.408;7.208;2023-05-23T00:29:17;21.60;53.60
4411;DHT22;2218;51.408;7.208;2023-05-23T00:31:45;21.60;53.70
4411;DHT22;2218;51.408;7.208;2023-05-23T00:34:13;21.50;53.50
4411;DHT22;2218;51.408;7.208;2023-05-23T00:36:43;21.50;53.50
4411;DHT22;2218;51.408;7.208;2023-05-23T00:39:13;21.60;53.60
4411;DHT22;2218;51.408;7.208;2023-05-23T00:41:44;21.60;53.60
4411;DHT22;2218;51.408;7.208;2023-05-23T00:44:12;21.50;53.50
4411;DHT22;2218;51.408;7.208;2023-05-23T00:46:39;21.50;53.50
4411;DHT22;2218;51.408;7.208;2023-05-23T00:49:09;21.50;53.50
4411;DHT22;2218;51.408;7.208;2023-05-23T00:51:39;21.50;53.50
4411;DHT22;2218;51.408;7.208;2023-05-23T00:54:09;21.50;53.50
4411;DHT22;2218;51.408;7.208;2023-05-23T00:56:36;21.50;53.50
4411;DHT22;2218;51.408;7.208;2023-05-23T00:59:04;21.50;53.50
4411;DHT22;2218;51.408;7.208;2023-05-23T01:01:33;21.50;53.50
4411;DHT22;2218;51.408;7.208;2023-05-23T01:04:01;21.50;53.50
4411;DHT22;2218;51.408;7.208;2023-05-23T01:06:29;21.50;53.50
4411;DHT22;2218;51.408;7.208;2023-05-23T01:08:58;21.50;53.40
4411;DHT22;2218;51.408;7.208;2023-05-23T01:11:33;21.50;53.40
4411;DHT22;2218;51.408;7.208;2023-05-23T01:14:10;21.50;53.40
4411;DHT22;2218;51.408;7.208;2023-05-23T01:16:47;21.50;53.40
4411;DHT22;2218;51.408;7.208;2023-05-23T01:19:37;21.50;53.40
4411;DHT22;2218;51.408;7.208;2023-05-23T01:22:21;21.50;53.40
4411;DHT22;2218;51.408;7.208;2023-05-23T01:25:04;21.50;53.40
4411;DHT22;2218;51.408;7.208;2023-05-23T01:27:46;21.50;53.40
4411;DHT22;2218;51.408;7.208;2023-05-23T01:30:17;21.50;53.40
4411;DHT22;2218;51.408;7.208;2023-05-23T01:32:47;21.50;53.40
4411;DHT22;2218;51.408;7.208;2023-05-23T01:35:22;21.50;53.30
4411;DHT22;2218;51.408;7.208;2023-05-23T01:37:53;21.50;53.80
4411;DHT22;2218;51.408;7.208;2023-05-23T01:40:20;21.50;53.40
4411;DHT22;2218;51.408;7.208;2023-05-23T01:42:50;21.50;53.30
4411;DHT22;2218;51.408;7.208;2023-05-23T01:45:18;21.50;53.30
4411;DHT22;2218;51.408;7.208;2023-05-23T01:47:47;21.50;53.30
4411;DHT22;2218;51.408;7.208;2023-05-23T01:50:16;21.40;53.20
4411;DHT22;2218;51.408;7.208;2023-05-23T01:52:45;21.40;53.20
4411;DHT22;2218;51.408;7.208;2023-05-23T01:55:15;21.40;53.20
4411;DHT22;2218;51.408;7.208;2023-05-23T01:57:50;21.40;53.20
4411;DHT22;2218;51.408;7.208;2023-05-23T02:00:19;21.40;53.20
4411;DHT22;2218;51.408;7.208;2023-05-23T02:02:47;21.40;53.20
4411;DHT22;2218;51.408;7.208;2023-05-23T02:05:15;21.40;53.10
4411;DHT22;2218;51.408;7.208;2023-05-23T02:07:44;21.50;53.20
4411;DHT22;2218;51.408;7.208;2023-05-23T02:10:11;21.40;53.10
4411;DHT22;2218;51.408;7.208;2023-05-23T02:12:38;21.40;53.10
4411;DHT22;2218;51.408;7.208;2023-05-23T02:15:07;21.40;53.10
4411;DHT22;2218;51.408;7.208;2023-05-23T02:17:35;21.40;53.10
4411;DHT22;2218;51.408;7.208;2023-05-23T02:20:05;21.40;53.10
4411;DHT22;2218;51.408;7.208;2023-05-23T02:22:34;21.40;53.10
4411;DHT22;2218;51.408;7.208;2023-05-23T02:25:01;21.40;53.10
4411;DHT22;2218;51.408;7.208;2023-05-23T02:27:28;21.40;53.10
4411;DHT22;2218;51.408;7.208;2023-05-23T02:29:55;21.40;53.10
4411;DHT22;2218;51.408;7.208;2023-05-23T02:32:24;21.40;53.10
4411;DHT22;2218;51.408;7.208;2023-05-23T02:34:51;21.40;53.10
4411;DHT22;2218;51.408;7.208;2023-05-23T02:37:18;21.40;53.10
4411;DHT22;2218;51.408;7.208;2023-05-23T02:39:46;21.40;53.00
4411;DHT22;2218;51.408;7.208;2023-05-23T02:42:13;21.40;53.00
4411;DHT22;2218;51.408;7.208;2023-05-23T02:44:40;21.40;53.00
4411;DHT22;2218;51.408;7.208;2023-05-23T02:47:07;21.40;53.00
4411;DHT22;2218;51.408;7.208;2023-05-23T02:49:35;21.40;53.00
4411;DHT22;2218;51.408;7.208;2023-05-23T02:52:02;21.40;53.00
4411;DHT22;2218;51.408;7.208;2023-05-23T02:54:30;21.40;53.00
4411;DHT22;2218;51.408;7.208;2023-05-23T02:56:57;21.40;53.00
4411;DHT22;2218;51.408;7.208;2023-05-23T02:59:24;21.40;53.00
4411;DHT22;2218;51.408;7.208;2023-05-23T03:01:51;21.40;53.00
4411;DHT22;2218;51.408;7.208;2023-05-23T03:04:18;21.40;53.00
4411;DHT22;2218;51.408;7.208;2023-05-23T03:06:47;21.40;53.50
4411;DHT22;2218;51.408;7.208;2023-05-23T03:09:14;21.40;53.00
4411;DHT22;2218;51.408;7.208;2023-05-23T03:11:42;21.40;53.00
4411;DHT22;2218;51.408;7.208;2023-05-23T03:14:10;21.40;53.00
4411;DHT22;2218;51.408;7.208;2023-05-23T03:16:37;21.40;52.90
4411;DHT22;2218;51.408;7.208;2023-05-23T03:19:04;21.40;53.00
4411;DHT22;2218;51.408;7.208;2023-05-23T03:21:31;21.40;53.00
4411;DHT22;2218;51.408;7.208;2023-05-23T03:24:01;21.40;53.00
4411;DHT22;2218;51.408;7.208;2023-05-23T03:26:29;21.30;52.80
4411;DHT22;2218;51.408;7.208;2023-05-23T03:28:57;21.30;52.80
4411;DHT22;2218;51.408;7.208;2023-05-23T03:31:23;21.30;52.80
4411;DHT22;2218;51.408;7.208;2023-05-23T03:33:50;21.30;52.80
4411;DHT22;2218;51.408;7.208;2023-05-23T03:36:18;21.40;52.90
4411;DHT22;2218;51.408;7.208;2023-05-23T03:38:46;21.30;52.80
4411;DHT22;2218;51.408;7.208;2023-05-23T03:41:15;21.30;52.80
4411;DHT22;2218;51.408;7.208;2023-05-23T03:43:42;21.30;52.80
4411;DHT22;2218;51.408;7.208;2023-05-23T03:46:10;21.30;52.80
4411;DHT22;2218;51.408;7.208;2023-05-23T03:48:38;21.30;52.80
4411;DHT22;2218;51.408;7.208;2023-05-23T03:51:05;21.30;52.80
4411;DHT22;2218;51.408;7.208;2023-05-23T03:53:32;21.30;52.80
4411;DHT22;2218;51.408;7.208;2023-05-23T03:55:59;21.30;52.80
4411;DHT22;2218;51.408;7.208;2023-05-23T03:58:27;21.30;52.80
4411;DHT22;2218;51.408;7.208;2023-05-23T04:00:58;21.30;52.80
4411;DHT22;2218;51.408;7.208;2023-05-23T04:03:26;21.30;52.80
4411;DHT22;2218;51.408;7.208;2023-05-23T04:05:57;21.30;52.80
4411;DHT22;2218;51.408;7.208;2023-05-23T04:08:25;21.30;52.80
4411;DHT22;2218;51.408;7.208;2023-05-23T04:10:53;21.30;52.70
4411;DHT22;2218;51.408;7.208;2023-05-23T04:13:21;21.30;52.70
4411;DHT22;2218;51.408;7.208;2023-05-23T04:15:51;21.30;52.70
4411;DHT22;2218;51.408;7.208;2023-05-23T04:18:20;21.30;52.70
4411;DHT22;2218;51.408;7.208;2023-05-23T04:20:47;21.30;52.70
4411;DHT22;2218;51.408;7.208;2023-05-23T04:23:15;21.30;52.70
4411;DHT22;2218;51.408;7.208;2023-05-23T04:25:45;21.30;52.70
4411;DHT22;2218;51.408;7.208;2023-05-23T04:28:23;21.30;52.60
4411;DHT22;2218;51.408;7.208;2023-05-23T04:30:52;21.30;52.60
4411;DHT22;2218;51.408;7.208;2023-05-23T04:33:23;21.30;52.60
4411;DHT22;2218;51.408;7.208;2023-05-23T04:35:50;21.30;52.60
4411;DHT22;2218;51.408;7.208;2023-05-23T04:38:18;21.30;52.60
4411;DHT22;2218;51.408;7.208;2023-05-23T04:40:47;21.30;52.60
4411;DHT22;2218;51.408;7.208;2023-05-23T04:43:35;21.30;52.60
4411;DHT22;2218;51.408;7.208;2023-05-23T04:46:26;21.30;52.60
4411;DHT22;2218;51.408;7.208;2023-05-23T04:49:05;21.30;52.60
4411;DHT22;2218;51.408;7.208;2023-05-23T04:51:33;21.30;52.60
4411;DHT22;2218;51.408;7.208;2023-05-23T04:54:11;21.30;52.60
4411;DHT22;2218;51.408;7.208;2023-05-23T04:56:37;21.30;52.60
4411;DHT22;2218;51.408;7.208;2023-05-23T04:59:05;21.30;52.50
4411;DHT22;2218;51.408;7.208;2023-05-23T05:01:35;21.30;52.50
4411;DHT22;2218;51.408;7.208;2023-05-23T05:04:06;21.30;52.50
4411;DHT22;2218;51.408;7.208;2023-05-23T05:06:33;21.30;53.00
4411;DHT22;2218;51.408;7.208;2023-05-23T05:09:00;21.30;52.50
4411;DHT22;2218;51.408;7.208;2023-05-23T05:11:27;21.30;52.50
4411;DHT22;2218;51.408;7.208;2023-05-23T05:13:54;21.30;52.50
4411;DHT22;2218;51.408;7.208;2023-05-23T05:16:21;21.30;52.50
4411;DHT22;2218;51.408;7.208;2023-05-23T05:18:50;21.30;52.50
4411;DHT22;2218;51.408;7.208;2023-05-23T05:21:19;21.30;52.50
4411;DHT22;2218;51.408;7.208;2023-05-23T05:23:46;21.30;52.40
4411;DHT22;2218;51.408;7.208;2023-05-23T05:26:15;21.30;52.50
4411;DHT22;2218;51.408;7.208;2023-05-23T05:28:42;21.20;52.30
4411;DHT22;2218;51.408;7.208;2023-05-23T05:31:09;21.30;52.40
4411;DHT22;2218;51.408;7.208;2023-05-23T05:33:39;21.30;52.40
4411;DHT22;2218;51.408;7.208;2023-05-23T05:36:13;21.30;52.40
4411;DHT22;2218;51.408;7.208;2023-05-23T05:38:42;21.30;52.40
4411;DHT22;2218;51.408;7.208;2023-05-23T05:41:09;21.30;52.40
4411;DHT22;2218;51.408;7.208;2023-05-23T05:43:40;21.20;52.20
4411;DHT22;2218;51.408;7.208;2023-05-23T05:46:08;21.20;52.20
4411;DHT22;2218;51.408;7.208;2023-05-23T05:48:36;21.20;52.20
4411;DHT22;2218;51.408;7.208;2023-05-23T05:51:06;21.30;52.30
4411;DHT22;2218;51.408;7.208;2023-05-23T05:53:35;21.30;52.30
4411;DHT22;2218;51.408;7.208;2023-05-23T05:56:02;21.20;52.20
4411;DHT22;2218;51.408;7.208;2023-05-23T05:58:31;21.20;52.10
4411;DHT22;2218;51.408;7.208;2023-05-23T06:01:04;21.20;52.10
4411;DHT22;2218;51.408;7.208;2023-05-23T06:03:31;21.20;52.10
4411;DHT22;2218;51.408;7.208;2023-05-23T06:05:59;21.20;52.10
4411;DHT22;2218;51.408;7.208;2023-05-23T06:08:26;21.20;52.10
4411;DHT22;2218;51.408;7.208;2023-05-23T06:10:54;21.30;52.20
4411;DHT22;2218;51.408;7.208;2023-05-23T06:13:21;21.30;52.70
4411;DHT22;2218;51.408;7.208;2023-05-23T06:15:52;21.30;52.20
4411;DHT22;2218;51.408;7.208;2023-05-23T06:18:19;21.30;52.20
4411;DHT22;2218;51.408;7.208;2023-05-23T06:20:46;21.20;52.10
4411;DHT22;2218;51.408;7.208;2023-05-23T06:23:15;21.20;52.10
4411;DHT22;2218;51.408;7.208;2023-05-23T06:25:44;21.30;52.10
4411;DHT22;2218;51.408;7.208;2023-05-23T06:28:13;21.30;52.20
4411;DHT22;2218;51.408;7.208;2023-05-23T06:30:40;21.20;52.10
4411;DHT22;2218;51.408;7.208;2023-05-23T06:33:07;21.30;52.20
4411;DHT22;2218;51.408;7.208;2023-05-23T06:35:34;21.20;52.00
4411;DHT22;2218;51.408;7.208;2023-05-23T06:38:01;21.20;52.00
4411;DHT22;2218;51.408;7.208;2023-05-23T06:40:28;21.30;52.10
4411;DHT22;2218;51.408;7.208;2023-05-23T06:42:55;21.20;52.00
4411;DHT22;2218;51.408;7.208;2023-05-23T06:45:31;21.30;52.10
4411;DHT22;2218;51.408;7.208;2023-05-23T06:47:59;21.30;52.10
4411;DHT22;2218;51.408;7.208;2023-05-23T06:50:26;21.30;52.10
4411;DHT22;2218;51.408;7.208;2023-05-23T06:52:53;21.30;52.00
4411;DHT22;2218;51.408;7.208;2023-05-23T06:55:21;21.20;51.90
4411;DHT22;2218;51.408;7.208;2023-05-23T06:57:48;21.20;51.90
4411;DHT22;2218;51.408;7.208;2023-05-23T07:00:17;21.20;51.90
4411;DHT22;2218;51.408;7.208;2023-05-23T07:03:00;21.20;52.00
4411;DHT22;2218;51.408;7.208;2023-05-23T07:05:28;21.20;51.90
4411;DHT22;2218;51.408;7.208;2023-05-23T07:07:56;21.20;51.90
4411;DHT22;2218;51.408;7.208;2023-05-23T07:10:23;21.20;51.90
4411;DHT22;2218;51.408;7.208;2023-05-23T07:12:51;21.20;51.90
4411;DHT22;2218;51.408;7.208;2023-05-23T07:15:20;21.20;51.90
4411;DHT22;2218;51.408;7.208;2023-05-23T07:17:56;21.20;51.90
4411;DHT22;2218;51.408;7.208;2023-05-23T07:20:25;21.20;51.90
4411;DHT22;2218;51.408;7.208;2023-05-23T07:22:59;21.20;51.90
4411;DHT22;2218;51.408;7.208;2023-05-23T07:25:26;21.20;51.90
4411;DHT22;2218;51.408;7.208;2023-05-23T07:27:53;21.20;51.90
4411;DHT22;2218;51.408;7.208;2023-05-23T07:30:21;21.20;51.90
4411;DHT22;2218;51.408;7.208;2023-05-23T07:32:48;21.20;51.90
4411;DHT22;2218;51.408;7.208;2023-05-23T07:35:16;21.20;51.90
4411;DHT22;2218;51.408;7.208;2023-05-23T07:37:50;21.20;51.90
4411;DHT22;2218;51.408;7.208;2023-05-23T07:40:17;21.20;51.80
4411;DHT22;2218;51.408;7.208;2023-05-23T07:42:44;21.20;51.80
4411;DHT22;2218;51.408;7.208;2023-05-23T07:45:11;21.20;51.80
4411;DHT22;2218;51.408;7.208;2023-05-23T07:47:41;21.20;51.80
4411;DHT22;2218;51.408;7.208;2023-05-23T07:50:09;21.20;51.80
4411;DHT22;2218;51.408;7.208;2023-05-23T07:52:37;21.20;51.80
4411;DHT22;2218;51.408;7.208;2023-05-23T07:55:08;21.20;51.80
4411;DHT22;2218;51.408;7.208;2023-05-23T07:57:35;21.20;51.80
4411;DHT22;2218;51.408;7.208;2023-05-23T08:00:02;21.20;51.80
4411;DHT22;2218;51.408;7.208;2023-05-23T08:02:40;21.20;51.80
4411;DHT22;2218;51.408;7.208;2023-05-23T08:05:13;21.20;51.80
4411;DHT22;2218;51.408;7.208;2023-05-23T08:07:40;21.20;51.80
4411;DHT22;2218;51.408;7.208;2023-05-23T08:10:09;21.20;51.80
4411;DHT22;2218;51.408;7.208;2023-05-23T08:12:37;21.20;51.70
4411;DHT22;2218;51.408;7.208;2023-05-23T08:15:09;21.20;51.80
4411;DHT22;2218;51.408;7.208;2023-05-23T08:17:41;21.20;51.70
4411;DHT22;2218;51.408;7.208;2023-05-23T08:20:09;21.20;51.70
4411;DHT22;2218;51.408;7.208;2023-05-23T08:22:37;21.20;51.70
4411;DHT22;2218;51.408;7.208;2023-05-23T08:25:05;21.20;51.70
4411;DHT22;2218;51.408;7.208;2023-05-23T08:27:37;21.10;51.60
4411;DHT22;2218;51.408;7.208;2023-05-23T08:30:22;21.20;51.70
4411;DHT22;2218;51.408;7.208;2023-05-23T08:32:50;21.20;51.70
4411;DHT22;2218;51.408;7.208;2023-05-23T08:35:18;21.20;51.70
4411;DHT22;2218;51.408;7.208;2023-05-23T08:37:45;21.20;51.70
4411;DHT22;2218;51.408;7.208;2023-05-23T08:40:13;21.20;51.60
4411;DHT22;2218;51.408;7.208;2023-05-23T08:42:50;21.20;51.60
4411;DHT22;2218;51.408;7.208;2023-05-23T08:45:17;21.20;51.60
4411;DHT22;2218;51.408;7.208;2023-05-23T08:47:46;21.20;51.60
4411;DHT22;2218;51.408;7.208;2023-05-23T08:50:15;21.20;51.60
4411;DHT22;2218;51.408;7.208;2023-05-23T08:52:49;21.20;51.60
4411;DHT22;2218;51.408;7.208;2023-05-23T08:55:23;21.20;51.60
4411;DHT22;2218;51.408;7.208;2023-05-23T08:57:54;21.20;51.60
4411;DHT22;2218;51.408;7.208;2023-05-23T09:00:33;21.20;51.60
4411;DHT22;2218;51.408;7.208;2023-05-23T09:03:01;21.20;51.60
4411;DHT22;2218;51.408;7.208;2023-05-23T09:05:42;21.20;51.60
4411;DHT22;2218;51.408;7.208;2023-05-23T09:08:09;21.20;51.60
4411;DHT22;2218;51.408;7.208;2023-05-23T09:10:37;21.20;51.50
4411;DHT22;2218;51.408;7.208;2023-05-23T09:13:07;21.20;51.60
4411;DHT22;2218;51.408;7.208;2023-05-23T09:15:35;21.20;51.50
4411;DHT22;2218;51.408;7.208;2023-05-23T09:18:03;21.20;51.50
4411;DHT22;2218;51.408;7.208;2023-05-23T09:20:32;21.20;51.50
4411;DHT22;2218;51.408;7.208;2023-05-23T09:23:06;21.20;51.50
4411;DHT22;2218;51.408;7.208;2023-05-23T09:25:37;21.20;51.50
4411;DHT22;2218;51.408;7.208;2023-05-23T09:28:12;21.20;51.50
4411;DHT22;2218;51.408;7.208;2023-05-23T09:30:40;21.20;51.50
4411;DHT22;2218;51.408;7.208;2023-05-23T09:33:07;21.20;51.50
4411;DHT22;2218;51.408;7.208;2023-05-23T09:35:35;21.20;51.40
4411;DHT22;2218;51.408;7.208;2023-05-23T09:38:01;21.20;51.40
4411;DHT22;2218;51.408;7.208;2023-05-23T09:40:30;21.20;51.40
4411;DHT22;2218;51.408;7.208;2023-05-23T09:43:02;21.20;51.90
4411;DHT22;2218;51.408;7.208;2023-05-23T09:45:31;21.20;51.40
4411;DHT22;2218;51.408;7.208;2023-05-23T09:48:03;21.20;51.40
4411;DHT22;2218;51.408;7.208;2023-05-23T09:50:32;21.20;51.40
4411;DHT22;2218;51.408;7.208;2023-05-23T09:53:01;21.20;51.30
4411;DHT22;2218;51.408;7.208;2023-05-23T09:55:28;21.20;51.40
4411;DHT22;2218;51.408;7.208;2023-05-23T09:57:58;21.20;51.30
4411;DHT22;2218;51.408;7.208;2023-05-23T10:00:26;21.20;51.30
4411;DHT22;2218;51.408;7.208;2023-05-23T10:03:00;21.20;51.30
4411;DHT22;2218;51.408;7.208;2023-05-23T10:05:40;21.20;51.30
4411;DHT22;2218;51.408;7.208;2023-05-23T10:08:15;21.20;51.30
4411;DHT22;2218;51.408;7.208;2023-05-23T10:14:16;21.20;51.30
4411;DHT22;2218;51.408;7.208;2023-05-23T10:16:52;21.20;51.30
4411;DHT22;2218;51.408;7.208;2023-05-23T10:19:29;21.10;51.20
4411;DHT22;2218;51.408;7.208;2023-05-23T10:22:07;21.10;51.10
4411;DHT22;2218;51.408;7.208;2023-05-23T10:24:36;21.10;51.10
4411;DHT22;2218;51.408;7.208;2023-05-23T10:27:05;21.10;51.10
4411;DHT22;2218;51.408;7.208;2023-05-23T10:29:34;21.20;51.20
4411;DHT22;2218;51.408;7.208;2023-05-23T10:32:02;21.10;51.00
4411;DHT22;2218;51.408;7.208;2023-05-23T10:34:36;21.20;51.10
4411;DHT22;2218;51.408;7.208;2023-05-23T10:37:11;21.10;51.00
4411;DHT22;2218;51.408;7.208;2023-05-23T10:39:54;21.10;51.00
4411;DHT22;2218;51.408;7.208;2023-05-23T10:42:33;21.20;51.10
4411;DHT22;2218;51.408;7.208;2023-05-23T10:45:17;21.20;51.00
4411;DHT22;2218;51.408;7.208;2023-05-23T10:47:46;21.10;51.40
4411;DHT22;2218;51.408;7.208;2023-05-23T10:50:28;21.10;50.90
4411;DHT22;2218;51.408;7.208;2023-05-23T10:52:58;21.10;50.90
4411;DHT22;2218;51.408;7.208;2023-05-23T10:55:31;21.10;50.90
4411;DHT22;2218;51.408;7.208;2023-05-23T10:58:09;21.20;51.00
4411;DHT22;2218;51.408;7.208;2023-05-23T11:00:38;21.20;51.00
4411;DHT22;2218;51.408;7.208;2023-05-23T11:03:05;21.20;51.00
4411;DHT22;2218;51.408;7.208;2023-05-23T11:05:34;21.20;50.90
4411;DHT22;2218;51.408;7.208;2023-05-23T11:08:09;21.20;50.80
4411;DHT22;2218;51.408;7.208;2023-05-23T11:10:51;21.20;50.80
4411;DHT22;2218;51.408;7.208;2023-05-23T11:13:20;21.20;50.80
4411;DHT22;2218;51.408;7.208;2023-05-23T11:15:47;21.10;50.70
4411;DHT22;2218;51.408;7.208;2023-05-23T11:18:20;21.10;50.70
4411;DHT22;2218;51.408;7.208;2023-05-23T11:20:54;21.10;50.70
4411;DHT22;2218;51.408;7.208;2023-05-23T11:23:38;21.20;50.70
4411;DHT22;2218;51.408;7.208;2023-05-23T11:26:30;21.10;50.70
4411;DHT22;2218;51.408;7.208;2023-05-23T11:28:58;21.20;50.70
4411;DHT22;2218;51.408;7.208;2023-05-23T11:31:27;21.10;50.60
4411;DHT22;2218;51.408;7.208;2023-05-23T11:33:55;21.20;51.20
4411;DHT22;2218;51.408;7.208;2023-05-23T11:36:22;21.20;50.60
4411;DHT22;2218;51.408;7.208;2023-05-23T11:38:49;21.20;50.60
4411;DHT22;2218;51.408;7.208;2023-05-23T11:41:18;21.10;50.50
4411;DHT22;2218;51.408;7.208;2023-05-23T11:43:50;21.10;50.50
4411;DHT22;2218;51.408;7.208;2023-05-23T11:46:18;21.10;50.40
4411;DHT22;2218;51.408;7.208;2023-05-23T11:48:46;21.20;50.50
4411;DHT22;2218;51.408;7.208;2023-05-23T11:51:13;21.10;50.40
4411;DHT22;2218;51.408;7.208;2023-05-23T11:53:41;21.20;50.40
4411;DHT22;2218;51.408;7.208;2023-05-23T11:56:08;21.20;50.40
4411;DHT22;2218;51.408;7.208;2023-05-23T11:58:37;21.20;50.40
4411;DHT22;2218;51.408;7.208;2023-05-23T12:01:07;21.20;50.30
4411;DHT22;2218;51.408;7.208;2023-05-23T12:03:45;21.20;50.30
4411;DHT22;2218;51.408;7.208;2023-05-23T12:06:14;21.20;50.30
4411;DHT22;2218;51.408;7.208;2023-05-23T12:08:41;21.20;50.30
4411;DHT22;2218;51.408;7.208;2023-05-23T12:11:08;21.20;50.30
4411;DHT22;2218;51.408;7.208;2023-05-23T12:13:36;21.10;50.20
4411;DHT22;2218;51.408;7.208;2023-05-23T12:16:03;21.20;50.20
4411;DHT22;2218;51.408;7.208;2023-05-23T12:18:32;21.20;50.30
4411;DHT22;2218;51.408;7.208;2023-05-23T12:21:00;21.20;50.20
4411;DHT22;2218;51.408;7.208;2023-05-23T12:23:31;21.20;50.20
4411;DHT22;2218;51.408;7.208;2023-05-23T12:25:58;21.20;50.20
4411;DHT22;2218;51.408;7.208;2023-05-23T12:28:34;21.20;50.20
4411;DHT22;2218;51.408;7.208;2023-05-23T12:31:08;21.20;50.10
4411;DHT22;2218;51.408;7.208;2023-05-23T12:33:38;21.20;50.10
4411;DHT22;2218;51.408;7.208;2023-05-23T12:36:08;21.20;50.10
4411;DHT22;2218;51.408;7.208;2023-05-23T12:38:36;21.20;50.10
4411;DHT22;2218;51.408;7.208;2023-05-23T12:41:09;21.20;50.00
4411;DHT22;2218;51.408;7.208;2023-05-23T12:43:38;21.20;50.00
4411;DHT22;2218;51.408;7.208;2023-05-23T12:46:05;21.20;50.00
4411;DHT22;2218;51.408;7.208;2023-05-23T12:48:33;21.20;50.00
4411;DHT22;2218;51.408;7.208;2023-05-23T12:51:02;21.20;50.00
4411;DHT22;2218;51.408;7.208;2023-05-23T12:53:29;21.20;49.90
4411;DHT22;2218;51.408;7.208;2023-05-23T12:55:56;21.20;50.00
4411;DHT22;2218;51.408;7.208;2023-05-23T12:58:23;21.30;50.00
4411;DHT22;2218;51.408;7.208;2023-05-23T13:00:50;21.20;49.90
4411;DHT22;2218;51.408;7.208;2023-05-23T13:03:17;21.30;50.00
4411;DHT22;2218;51.408;7.208;2023-05-23T13:05:44;21.20;49.90
4411;DHT22;2218;51.408;7.208;2023-05-23T13:08:31;21.20;49.90
4411;DHT22;2218;51.408;7.208;2023-05-23T13:10:58;21.20;49.80
4411;DHT22;2218;51.408;7.208;2023-05-23T13:13:25;21.20;49.70
4411;DHT22;2218;51.408;7.208;2023-05-23T13:15:52;21.30;49.80
4411;DHT22;2218;51.408;7.208;2023-05-23T13:18:19;21.20;49.80
4411;DHT22;2218;51.408;7.208;2023-05-23T13:20:46;21.30;49.90
4411;DHT22;2218;51.408;7.208;2023-05-23T13:23:13;21.20;49.70
4411;DHT22;2218;51.408;7.208;2023-05-23T13:25:41;21.20;49.70
4411;DHT22;2218;51.408;7.208;2023-05-23T13:28:09;21.30;49.80
4411;DHT22;2218;51.408;7.208;2023-05-23T13:30:36;21.20;49.60
4411;DHT22;2218;51.408;7.208;2023-05-23T13:33:03;21.20;49.50
4411;DHT22;2218;51.408;7.208;2023-05-23T13:35:32;21.30;49.60
4411;DHT22;2218;51.408;7.208;2023-05-23T13:37:59;21.20;49.50
4411;DHT22;2218;51.408;7.208;2023-05-23T13:40:26;21.20;49.50
4411;DHT22;2218;51.408;7.208;2023-05-23T13:42:55;21.30;49.50
4411;DHT22;2218;51.408;7.208;2023-05-23T13:45:22;21.30;49.50
4411;DHT22;2218;51.408;7.208;2023-05-23T13:47:49;21.30;49.50
4411;DHT22;2218;51.408;7.208;2023-05-23T13:50:16;21.30;49.60
4411;DHT22;2218;51.408;7.208;2023-05-23T13:52:44;21.30;49.50
4411;DHT22;2218;51.408;7.208;2023-05-23T13:55:11;21.30;49.40
4411;DHT22;2218;51.408;7.208;2023-05-23T13:57:38;21.30;49.40
4411;DHT22;2218;51.408;7.208;2023-05-23T14:00:07;21.30;49.40
4411;DHT22;2218;51.408;7.208;2023-05-23T14:02:36;21.30;49.40
4411;DHT22;2218;51.408;7.208;2023-05-23T14:05:03;21.30;49.30
4411;DHT22;2218;51.408;7.208;2023-05-23T14:07:31;21.30;49.30
4411;DHT22;2218;51.408;7.208;2023-05-23T14:09:58;21.30;49.40
4411;DHT22;2218;51.408;7.208;2023-05-23T14:12:25;21.30;49.40
4411;DHT22;2218;51.408;7.208;2023-05-23T14:14:52;21.30;49.30
4411;DHT22;2218;51.408;7.208;2023-05-23T14:17:20;21.30;49.40
4411;DHT22;2218;51.408;7.208;2023-05-23T14:19:48;21.30;49.30
4411;DHT22;2218;51.408;7.208;2023-05-23T14:22:15;21.30;49.40
4411;DHT22;2218;51.408;7.208;2023-05-23T14:24:42;21.30;49.30
4411;DHT22;2218;51.408;7.208;2023-05-23T14:27:09;21.30;49.20
4411;DHT22;2218;51.408;7.208;2023-05-23T14:29:36;21.30;49.30
4411;DHT22;2218;51.408;7.208;2023-05-23T14:32:03;21.30;49.20
4411;DHT22;2218;51.408;7.208;2023-05-23T14:34:31;21.30;49.20
4411;DHT22;2218;51.408;7.208;2023-05-23T14:36:59;21.30;49.10
4411;DHT22;2218;51.408;7.208;2023-05-23T14:39:26;21.30;49.10
4411;DHT22;2218;51.408;7.208;2023-05-23T14:41:53;21.30;49.00
4411;DHT22;2218;51.408;7.208;2023-05-23T14:44:20;21.30;49.00
4411;DHT22;2218;51.408;7.208;2023-05-23T14:46:47;21.30;48.90
4411;DHT22;2218;51.408;7.208;2023-05-23T14:49:15;21.30;48.90
4411;DHT22;2218;51.408;7.208;2023-05-23T14:51:44;21.30;48.90
4411;DHT22;2218;51.408;7.208;2023-05-23T14:54:11;21.30;49.00
4411;DHT22;2218;51.408;7.208;2023-05-23T14:56:40;21.30;48.90
4411;DHT22;2218;51.408;7.208;2023-05-23T14:59:07;21.40;49.00
4411;DHT22;2218;51.408;7.208;2023-05-23T15:01:34;21.30;48.90
4411;DHT22;2218;51.408;7.208;2023-05-23T15:04:01;21.40;49.00
4411;DHT22;2218;51.408;7.208;2023-05-23T15:06:30;21.40;48.90
4411;DHT22;2218;51.408;7.208;2023-05-23T15:08:58;21.30;48.80
4411;DHT22;2218;51.408;7.208;2023-05-23T15:11:26;21.30;48.90
4411;DHT22;2218;51.408;7.208;2023-05-23T15:13:53;21.30;48.80
4411;DHT22;2218;51.408;7.208;2023-05-23T15:16:20;21.40;48.90
4411;DHT22;2218;51.408;7.208;2023-05-23T15:18:47;21.30;48.70
4411;DHT22;2218;51.408;7.208;2023-05-23T15:21:14;21.40;48.80
4411;DHT22;2218;51.408;7.208;2023-05-23T15:23:41;21.30;48.70
4411;DHT22;2218;51.408;7.208;2023-05-23T15:26:09;21.30;48.50
4411;DHT22;2218;51.408;7.208;2023-05-23T15:28:36;21.30;48.70
4411;DHT22;2218;51.408;7.208;2023-05-23T15:31:03;21.30;48.60
4411;DHT22;2218;51.408;7.208;2023-05-23T15:33:30;21.30;48.50
4411;DHT22;2218;51.408;7.208;2023-05-23T15:35:57;21.40;48.60
4411;DHT22;2218;51.408;7.208;2023-05-23T15:38:24;21.30;48.50
4411;DHT22;2218;51.408;7.208;2023-05-23T15:40:51;21.40;48.70
4411;DHT22;2218;51.408;7.208;2023-05-23T15:43:20;21.30;48.50
4411;DHT22;2218;51.408;7.208;2023-05-23T15:45:49;21.40;48.50
4411;DHT22;2218;51.408;7.208;2023-05-23T15:48:17;21.30;48.40
4411;DHT22;2218;51.408;7.208;2023-05-23T15:50:44;21.30;48.40
4411;DHT22;2218;51.408;7.208;2023-05-23T15:53:11;21.30;48.50
4411;DHT22;2218;51.408;7.208;2023-05-23T15:55:38;21.30;48.40
4411;DHT22;2218;51.408;7.208;2023-05-23T15:58:05;21.30;48.30
4411;DHT22;2218;51.408;7.208;2023-05-23T16:00:33;21.30;48.40
4411;DHT22;2218;51.408;7.208;2023-05-23T16:03:00;21.30;48.40
4411;DHT22;2218;51.408;7.208;2023-05-23T16:05:27;21.30;48.40
4411;DHT22;2218;51.408;7.208;2023-05-23T16:07:54;21.30;48.20
4411;DHT22;2218;51.408;7.208;2023-05-23T16:10:21;21.30;48.30
4411;DHT22;2218;51.408;7.208;2023-05-23T16:12:49;21.30;48.30
4411;DHT22;2218;51.408;7.208;2023-05-23T16:15:16;21.30;48.30
4411;DHT22;2218;51.408;7.208;2023-05-23T16:17:44;21.30;48.30
4411;DHT22;2218;51.408;7.208;2023-05-23T16:20:11;21.30;48.30